Time;durP1;ratioP1;P1;durP2;ratioP2;P2;SDS_P1;SDS_P2;PMS_P1;PMS_P2;Temp;Humidity;BMP_temperature;BMP_pressure;BME280_temperature;BME280_humidity;BME280_pressure;Samples;Min_cycle;Max_cycle;Signal;HPM_P1;HPM_P2
2023/04/30 00:02:09;;;;;;;8.77;5.47;;;2.70;99.90;;;;;;5074834;28;20391;-23
2023/04/30 00:04:35;;;;;;;9.20;5.40;;;2.70;99.90;;;;;;5073906;28;20114;-23
2023/04/30 00:07:01;;;;;;;11.87;4.97;;;2.80;99.90;;;;;;5073212;28;20102;-23
2023/04/30 00:09:27;;;;;;;6.33;3.53;;;2.70;99.90;;;;;;5074026;28;20053;-23
2023/04/30 00:11:53;;;;;;;9.47;4.23;;;2.70;99.90;;;;;;5073848;28;20040;-23
2023/04/30 00:14:18;;;;;;;6.43;3.57;;;2.60;99.90;;;;;;5073643;28;20097;-23
2023/04/30 00:16:45;;;;;;;7.83;3.13;;;2.50;99.90;;;;;;5073887;28;20048;-23
2023/04/30 00:19:11;;;;;;;5.67;2.70;;;2.40;99.90;;;;;;5072715;28;20524;-23
2023/04/30 00:21:36;;;;;;;3.67;2.47;;;2.30;99.90;;;;;;5073821;28;20083;-23
2023/04/30 00:24:02;;;;;;;3.90;2.30;;;2.20;99.90;;;;;;5073788;28;20483;-23
2023/04/30 00:26:28;;;;;;;5.70;3.30;;;2.20;99.90;;;;;;5072803;28;20360;-22
2023/04/30 00:28:54;;;;;;;6.77;2.97;;;2.10;99.90;;;;;;5073699;28;20056;-23
2023/04/30 00:31:20;;;;;;;15.30;3.43;;;2.10;99.90;;;;;;5072483;28;20048;-22
2023/04/30 00:33:45;;;;;;;47.47;3.53;;;2.10;99.90;;;;;;5073593;28;20130;-23
2023/04/30 00:36:11;;;;;;;174.63;8.23;;;2.10;99.90;;;;;;5074202;28;20044;-23
2023/04/30 00:38:37;;;;;;;179.10;6.93;;;2.10;99.90;;;;;;5073603;28;20127;-23
2023/04/30 00:41:03;;;;;;;267.70;8.90;;;2.30;99.90;;;;;;5073590;28;20550;-23
2023/04/30 00:43:29;;;;;;;283.13;13.60;;;2.20;99.90;;;;;;5073857;28;20045;-24
2023/04/30 00:45:54;;;;;;;217.27;9.50;;;2.10;99.90;;;;;;5073573;28;20540;-24
2023/04/30 00:48:20;;;;;;;229.97;11.30;;;2.00;99.90;;;;;;5073427;28;20151;-24
2023/04/30 00:50:46;;;;;;;372.33;18.07;;;1.90;99.90;;;;;;5073497;28;20067;-24
2023/04/30 00:53:12;;;;;;;294.83;12.40;;;2.00;99.90;;;;;;5056381;28;20041;-24
2023/04/30 00:55:42;;;;;;;91.83;8.47;;;2.00;99.90;;;;;;5073418;28;20043;-24
2023/04/30 00:58:08;;;;;;;9.30;4.47;;;2.00;99.90;;;;;;5073411;28;20056;-24
2023/04/30 01:00:34;;;;;;;7.80;4.03;;;2.10;99.90;;;;;;5073401;28;20041;-24
2023/04/30 01:03:00;;;;;;;6.23;3.70;;;2.10;99.90;;;;;;5073468;28;20410;-24
2023/04/30 01:05:26;;;;;;;6.70;3.97;;;2.00;99.90;;;;;;5073402;28;20048;-24
2023/04/30 01:07:53;;;;;;;5.20;2.60;;;1.90;99.90;;;;;;5073425;28;20145;-24
2023/04/30 01:10:21;;;;;;;6.60;2.73;;;2.00;99.90;;;;;;5073603;28;20052;-24
2023/04/30 01:13:11;;;;;;;6.40;3.27;;;1.90;99.90;;;;;;5073190;28;20080;-24
2023/04/30 01:15:49;;;;;;;5.47;3.20;;;1.90;99.90;;;;;;5073274;28;20048;-24
2023/04/30 01:18:23;;;;;;;8.77;4.43;;;1.90;99.90;;;;;;5076222;28;20053;-24
2023/04/30 01:20:53;;;;;;;7.63;4.07;;;1.90;99.90;;;;;;5077170;28;20063;-24
2023/04/30 01:23:33;;;;;;;7.13;4.37;;;2.00;99.90;;;;;;5077111;28;20534;-25
2023/04/30 01:26:07;;;;;;;10.57;5.67;;;2.10;99.90;;;;;;5076704;28;20521;-24
2023/04/30 01:28:36;;;;;;;8.90;5.90;;;2.10;99.90;;;;;;5077328;28;20157;-24
2023/04/30 01:31:02;;;;;;;10.10;6.67;;;2.10;99.90;;;;;;5042365;28;20052;-24
2023/04/30 01:33:27;;;;;;;7.97;5.20;;;2.10;99.90;;;;;;5077057;28;20041;-24
2023/04/30 01:36:30;;;;;;;10.33;6.43;;;2.20;99.90;;;;;;5076812;28;20540;-24
2023/04/30 01:39:10;;;;;;;14.07;6.47;;;2.20;99.90;;;;;;5076753;28;20044;-24
2023/04/30 01:41:45;;;;;;;8.30;5.40;;;2.30;99.90;;;;;;5076319;28;20083;-25
2023/04/30 01:44:37;;;;;;;9.70;5.60;;;2.50;99.90;;;;;;5077222;28;20084;-24
2023/04/30 01:47:09;;;;;;;11.48;6.13;;;2.70;99.90;;;;;;5076870;28;20053;-24
2023/04/30 01:49:49;;;;;;;12.43;7.50;;;2.80;99.90;;;;;;5076531;28;20495;-24
2023/04/30 01:52:27;;;;;;;15.48;9.50;;;3.00;99.90;;;;;;5075462;28;20048;-24
2023/04/30 01:55:03;;;;;;;14.82;9.75;;;3.20;99.90;;;;;;5076186;28;20434;-24
2023/04/30 01:57:41;;;;;;;16.55;10.90;;;3.40;99.90;;;;;;5077268;28;20044;-24
2023/04/30 02:00:11;;;;;;;18.35;10.65;;;3.60;99.90;;;;;;5076966;28;20386;-24
2023/04/30 02:02:37;;;;;;;23.63;13.00;;;3.70;99.90;;;;;;5076021;28;20498;-24
2023/04/30 02:05:02;;;;;;;27.80;13.50;;;3.80;99.90;;;;;;5076592;28;20047;-24
2023/04/30 02:07:43;;;;;;;19.77;11.88;;;3.80;99.90;;;;;;5076255;28;20040;-24
2023/04/30 02:10:11;;;;;;;13.60;9.35;;;3.90;99.90;;;;;;5076746;28;20047;-24
2023/04/30 02:12:37;;;;;;;15.07;10.02;;;3.90;99.90;;;;;;5075032;28;20485;-24
2023/04/30 02:15:04;;;;;;;14.98;9.32;;;4.00;99.90;;;;;;5076677;28;20060;-24
2023/04/30 02:17:31;;;;;;;12.65;7.32;;;4.00;99.90;;;;;;5058549;28;20067;-24
2023/04/30 02:19:56;;;;;;;15.10;9.73;;;4.00;99.90;;;;;;5074942;28;20056;-24
2023/04/30 02:22:22;;;;;;;13.73;8.25;;;4.00;99.90;;;;;;5075996;28;20057;-24
2023/04/30 02:24:48;;;;;;;10.82;7.88;;;4.10;99.90;;;;;;5076476;28;20048;-24
2023/04/30 02:27:14;;;;;;;17.10;9.38;;;4.10;99.90;;;;;;5075893;28;20051;-24
2023/04/30 02:29:40;;;;;;;18.35;10.07;;;4.10;99.90;;;;;;5073294;28;20406;-24
2023/04/30 02:32:06;;;;;;;19.15;11.07;;;4.10;99.90;;;;;;5075761;28;20050;-24
2023/04/30 02:34:31;;;;;;;11.23;7.75;;;4.20;99.90;;;;;;5057860;28;20100;-24
2023/04/30 02:36:57;;;;;;;19.95;10.50;;;4.10;99.90;;;;;;5075554;28;20094;-24
2023/04/30 02:39:23;;;;;;;13.30;8.07;;;4.10;99.90;;;;;;5075653;28;20128;-24
2023/04/30 02:41:49;;;;;;;16.10;9.30;;;4.20;99.90;;;;;;5074415;28;20048;-24
2023/04/30 02:44:14;;;;;;;17.40;8.75;;;4.20;99.90;;;;;;5075625;28;20051;-24
2023/04/30 02:46:40;;;;;;;13.68;9.05;;;4.20;99.90;;;;;;5075431;28;20390;-24
2023/04/30 02:49:06;;;;;;;11.73;7.75;;;4.20;99.90;;;;;;5075209;28;20045;-24
2023/04/30 02:51:32;;;;;;;9.90;6.85;;;4.30;99.90;;;;;;5075420;28;20086;-24
2023/04/30 02:53:57;;;;;;;10.30;7.35;;;4.30;99.90;;;;;;5075298;28;20103;-24
2023/04/30 02:56:23;;;;;;;10.10;6.35;;;4.30;99.90;;;;;;5075843;28;20055;-24
2023/04/30 02:58:49;;;;;;;13.90;6.75;;;4.30;99.90;;;;;;5075829;28;20048;-24
2023/04/30 03:01:15;;;;;;;9.68;6.47;;;4.30;99.90;;;;;;5075480;28;20051;-24
2023/04/30 03:03:40;;;;;;;12.55;6.82;;;4.30;99.90;;;;;;5074023;28;20497;-25
2023/04/30 03:06:06;;;;;;;10.20;6.28;;;4.30;99.90;;;;;;5073904;28;20055;-24
2023/04/30 03:08:32;;;;;;;9.48;6.35;;;4.50;99.90;;;;;;5057210;28;20121;-24
2023/04/30 03:10:57;;;;;;;13.98;8.38;;;4.40;99.90;;;;;;5075296;28;20115;-24
2023/04/30 03:13:25;;;;;;;11.70;7.53;;;4.40;99.90;;;;;;5075205;28;20371;-24
2023/04/30 03:15:59;;;;;;;9.27;6.53;;;4.60;99.90;;;;;;5058420;28;20109;-24
2023/04/30 03:18:28;;;;;;;11.73;7.40;;;4.60;99.90;;;;;;5074921;28;20464;-24
2023/04/30 03:20:54;;;;;;;12.70;7.50;;;4.60;99.90;;;;;;5075416;28;20059;-24
2023/04/30 03:23:20;;;;;;;16.88;9.10;;;4.70;99.90;;;;;;5074776;28;20044;-24
2023/04/30 03:25:46;;;;;;;13.85;6.57;;;4.60;99.90;;;;;;5073501;28;20410;-24
2023/04/30 03:28:12;;;;;;;13.80;7.50;;;4.50;99.90;;;;;;5075235;28;20044;-24
2023/04/30 03:30:37;;;;;;;14.23;8.40;;;4.50;99.90;;;;;;5073683;28;20104;-24
2023/04/30 03:33:05;;;;;;;16.45;8.80;;;4.40;99.90;;;;;;5074545;28;20041;-24
2023/04/30 03:35:32;;;;;;;11.85;7.07;;;4.40;99.90;;;;;;5073424;28;20041;-24
2023/04/30 03:37:58;;;;;;;11.18;7.07;;;4.30;99.90;;;;;;5074353;28;20097;-24
2023/04/30 03:40:24;;;;;;;11.82;6.38;;;4.20;99.90;;;;;;5074216;28;20056;-24
2023/04/30 03:42:50;;;;;;;10.95;6.32;;;4.10;99.90;;;;;;5074409;28;20036;-24
2023/04/30 03:45:16;;;;;;;10.23;5.75;;;3.90;99.90;;;;;;5074623;28;20040;-24
2023/04/30 03:47:42;;;;;;;7.05;5.45;;;3.80;99.90;;;;;;5075089;28;20053;-24
2023/04/30 03:50:08;;;;;;;10.00;5.60;;;3.70;99.90;;;;;;5074246;28;20509;-24
2023/04/30 03:52:35;;;;;;;7.47;4.80;;;3.60;99.90;;;;;;5073799;28;20407;-24
2023/04/30 03:55:05;;;;;;;17.92;8.00;;;3.60;99.90;;;;;;5073173;28;20478;-24
2023/04/30 03:57:31;;;;;;;13.05;5.85;;;3.50;99.90;;;;;;5074129;28;20040;-24
2023/04/30 03:59:57;;;;;;;12.93;6.53;;;3.50;99.90;;;;;;5073883;28;20045;-24
2023/04/30 04:02:23;;;;;;;13.05;6.47;;;3.50;99.90;;;;;;5074048;28;20044;-24
2023/04/30 04:04:50;;;;;;;14.67;7.10;;;3.50;99.90;;;;;;5072870;28;20045;-24
2023/04/30 04:07:15;;;;;;;17.38;7.40;;;3.50;99.90;;;;;;5073972;28;20098;-24
2023/04/30 04:09:41;;;;;;;15.48;6.50;;;3.50;99.90;;;;;;5074070;28;20044;-24
2023/04/30 04:12:07;;;;;;;14.93;6.55;;;3.40;99.90;;;;;;5073864;28;20044;-24
2023/04/30 04:14:33;;;;;;;19.02;6.88;;;3.50;99.90;;;;;;5073728;28;20052;-24
2023/04/30 04:16:59;;;;;;;13.35;6.88;;;3.60;99.90;;;;;;5073047;28;20093;-24
2023/04/30 04:19:26;;;;;;;18.42;7.00;;;3.50;99.90;;;;;;5072539;28;20060;-24
2023/04/30 04:21:51;;;;;;;16.95;7.63;;;3.60;99.90;;;;;;5073796;28;20044;-24
2023/04/30 04:24:17;;;;;;;20.00;8.27;;;3.60;99.90;;;;;;5073087;28;20044;-24
2023/04/30 04:26:43;;;;;;;17.73;7.53;;;3.60;99.90;;;;;;5073627;28;20040;-24
2023/04/30 04:29:09;;;;;;;20.98;8.23;;;3.70;99.90;;;;;;5073642;28;20051;-24
2023/04/30 04:31:35;;;;;;;24.57;10.47;;;3.80;99.90;;;;;;5074354;28;20059;-24
2023/04/30 04:34:03;;;;;;;23.38;8.88;;;3.70;99.90;;;;;;5073828;28;20386;-24
2023/04/30 04:36:29;;;;;;;22.08;9.23;;;3.70;99.90;;;;;;5072655;28;20036;-24
2023/04/30 04:38:56;;;;;;;18.67;8.53;;;3.70;99.90;;;;;;5073504;28;20055;-24
2023/04/30 04:41:23;;;;;;;21.60;9.52;;;3.70;99.90;;;;;;5073460;28;20048;-24
2023/04/30 04:43:49;;;;;;;23.23;9.33;;;3.90;99.90;;;;;;5072064;28;20049;-24
2023/04/30 04:46:19;;;;;;;15.77;7.90;;;4.00;99.90;;;;;;5072394;28;20060;-24
2023/04/30 04:48:45;;;;;;;19.23;7.90;;;4.00;99.90;;;;;;5056875;28;20056;-24
2023/04/30 04:51:11;;;;;;;12.73;7.15;;;4.10;99.90;;;;;;5073451;28;20049;-24
2023/04/30 04:53:37;;;;;;;21.55;6.85;;;4.30;99.90;;;;;;5075980;28;20110;-24
2023/04/30 04:56:04;;;;;;;24.30;7.50;;;4.40;99.90;;;;;;5077524;28;20041;-24
2023/04/30 04:58:29;;;;;;;18.85;7.78;;;4.60;99.90;;;;;;5077715;28;20491;-24
2023/04/30 05:00:56;;;;;;;21.92;7.93;;;4.80;99.90;;;;;;5077458;28;20045;-24
2023/04/30 05:03:22;;;;;;;20.05;7.88;;;4.90;99.90;;;;;;5077042;28;20600;-24
2023/04/30 05:05:47;;;;;;;18.38;7.60;;;5.10;99.90;;;;;;5077337;28;20036;-24
2023/04/30 05:08:13;;;;;;;26.10;9.82;;;5.30;99.90;;;;;;5059712;28;20056;-24
2023/04/30 05:10:39;;;;;;;23.05;8.27;;;5.40;99.90;;;;;;5077254;28;20106;-24
2023/04/30 05:13:04;;;;;;;22.13;8.80;;;5.50;99.90;;;;;;5077199;28;20048;-24
2023/04/30 05:15:30;;;;;;;15.95;7.05;;;5.70;99.90;;;;;;5077423;28;20098;-24
2023/04/30 05:17:56;;;;;;;23.40;8.82;;;5.80;99.90;;;;;;5077174;28;20123;-24
2023/04/30 05:20:21;;;;;;;17.20;7.43;;;5.90;99.90;;;;;;5077605;28;20471;-24
2023/04/30 05:22:47;;;;;;;21.30;7.45;;;6.00;99.90;;;;;;5076848;28;20066;-24
2023/04/30 05:25:13;;;;;;;14.82;5.38;;;6.10;99.90;;;;;;5076622;28;20074;-24
2023/04/30 05:27:38;;;;;;;18.88;7.05;;;6.10;99.90;;;;;;5077709;28;20081;-24
2023/04/30 05:30:05;;;;;;;19.70;5.90;;;6.30;99.90;;;;;;5077363;28;20048;-24
2023/04/30 05:32:31;;;;;;;14.35;5.88;;;6.30;99.90;;;;;;5075550;28;20036;-24
2023/04/30 05:34:57;;;;;;;10.85;5.78;;;6.40;99.90;;;;;;5059958;28;20052;-24
2023/04/30 05:37:22;;;;;;;14.82;5.40;;;6.50;99.90;;;;;;5076721;28;20048;-24
2023/04/30 05:39:48;;;;;;;13.95;5.43;;;6.70;99.90;;;;;;5076944;28;20079;-24
2023/04/30 05:42:14;;;;;;;9.02;5.05;;;6.80;99.90;;;;;;5076713;28;20398;-24
2023/04/30 05:44:40;;;;;;;11.35;4.80;;;7.00;99.90;;;;;;5076624;28;20040;-24
2023/04/30 05:47:06;;;;;;;16.85;5.07;;;7.20;99.90;;;;;;5076496;28;20048;-24
2023/04/30 05:49:32;;;;;;;15.55;4.60;;;7.40;99.90;;;;;;5076571;28;20036;-24
2023/04/30 05:51:58;;;;;;;18.58;4.80;;;7.50;99.90;;;;;;5076662;28;20400;-25
2023/04/30 05:54:23;;;;;;;10.85;4.50;;;7.50;99.90;;;;;;5076481;28;20060;-24
2023/04/30 05:56:49;;;;;;;12.82;5.22;;;7.60;99.90;;;;;;5076449;28;20045;-25
2023/04/30 05:59:15;;;;;;;14.73;4.07;;;7.60;99.90;;;;;;5076337;28;20045;-25
2023/04/30 06:01:41;;;;;;;13.85;4.25;;;7.70;99.90;;;;;;5076312;28;20052;-24
2023/04/30 06:04:08;;;;;;;14.10;4.55;;;7.80;99.90;;;;;;5074943;28;20041;-25
2023/04/30 06:06:34;;;;;;;12.23;5.00;;;7.80;99.90;;;;;;5076747;28;20055;-24
2023/04/30 06:08:59;;;;;;;17.83;4.95;;;8.00;99.90;;;;;;5076153;28;20040;-25
2023/04/30 06:11:26;;;;;;;11.25;4.55;;;8.30;99.90;;;;;;5076140;28;20056;-25
2023/04/30 06:13:51;;;;;;;12.80;5.38;;;8.40;99.90;;;;;;5074748;28;20088;-24
2023/04/30 06:16:17;;;;;;;11.35;4.78;;;8.50;99.90;;;;;;5075920;28;20438;-24
2023/04/30 06:18:43;;;;;;;12.38;4.10;;;8.60;99.90;;;;;;5075967;28;20495;-25
2023/04/30 06:21:09;;;;;;;18.00;4.07;;;8.70;99.90;;;;;;5075964;28;20040;-25
2023/04/30 06:23:36;;;;;;;10.85;4.00;;;8.70;99.90;;;;;;5074729;28;20048;-25
2023/04/30 06:26:02;;;;;;;17.77;4.15;;;8.80;99.90;;;;;;5076106;28;20050;-25
2023/04/30 06:28:28;;;;;;;10.15;3.75;;;8.90;99.90;;;;;;5076085;28;20040;-26
2023/04/30 06:30:54;;;;;;;11.02;3.28;;;9.00;99.90;;;;;;5075750;28;20048;-25
2023/04/30 06:33:21;;;;;;;9.27;3.80;;;9.30;99.90;;;;;;5075675;28;20127;-25
2023/04/30 06:35:46;;;;;;;13.27;3.83;;;9.50;99.90;;;;;;5075663;28;20044;-25
2023/04/30 06:38:17;;;;;;;16.20;4.40;;;9.60;99.90;;;;;;5074581;28;20106;-25
2023/04/30 06:40:43;;;;;;;11.18;3.15;;;9.70;99.90;;;;;;5075758;28;20052;-26
2023/04/30 06:43:09;;;;;;;14.93;3.65;;;9.60;99.90;;;;;;5074435;28;20050;-25
2023/04/30 06:45:34;;;;;;;10.15;3.55;;;9.70;99.90;;;;;;5075558;28;20131;-25
2023/04/30 06:48:00;;;;;;;14.68;3.67;;;9.70;99.90;;;;;;5076263;28;20048;-26
2023/04/30 06:50:26;;;;;;;12.73;3.67;;;9.70;99.90;;;;;;5075880;28;20554;-26
2023/04/30 06:52:52;;;;;;;13.98;3.00;;;9.90;99.90;;;;;;5075258;28;20090;-27
2023/04/30 06:55:17;;;;;;;12.38;3.92;;;10.10;99.90;;;;;;5075639;28;20494;-26
2023/04/30 06:57:43;;;;;;;9.38;2.75;;;10.30;45.10;;;;;;5075314;28;20123;-26
2023/04/30 07:00:09;;;;;;;13.68;3.20;;;10.50;1.00;;;;;;5075298;28;20119;-25
2023/04/30 07:02:35;;;;;;;11.10;2.67;;;10.70;39.30;;;;;;5075805;28;20052;-25
2023/04/30 07:05:01;;;;;;;9.57;2.40;;;10.90;1.00;;;;;;5073918;28;20135;-25
2023/04/30 07:07:27;;;;;;;12.90;2.63;;;11.10;99.90;;;;;;5075149;28;20044;-26
2023/04/30 07:09:53;;;;;;;8.90;2.25;;;11.20;99.90;;;;;;5074366;28;20048;-26
2023/04/30 07:12:21;;;;;;;9.07;2.35;;;11.20;9.60;;;;;;5074951;28;20055;-27
2023/04/30 07:14:47;;;;;;;11.15;4.80;;;11.30;1.00;;;;;;5074230;28;20482;-26
2023/04/30 07:17:12;;;;;;;10.75;2.35;;;11.50;99.90;;;;;;5075160;28;20058;-26
2023/04/30 07:19:38;;;;;;;15.88;4.00;;;11.50;99.90;;;;;;5074799;28;20048;-25
2023/04/30 07:22:04;;;;;;;7.63;2.15;;;11.50;99.90;;;;;;5074820;28;20487;-26
2023/04/30 07:24:30;;;;;;;13.07;2.17;;;11.40;99.90;;;;;;5074041;28;20475;-26
2023/04/30 07:26:57;;;;;;;11.10;3.05;;;11.30;99.90;;;;;;5074716;28;20063;-26
2023/04/30 07:29:23;;;;;;;14.70;3.30;;;11.30;99.90;;;;;;5073446;28;20044;-26
2023/04/30 07:31:49;;;;;;;10.43;2.30;;;11.20;99.90;;;;;;5073884;28;20041;-26
2023/04/30 07:34:15;;;;;;;10.75;2.50;;;11.10;99.90;;;;;;5074745;28;20525;-26
2023/04/30 07:36:41;;;;;;;13.38;2.35;;;11.00;99.90;;;;;;5074593;28;20084;-25
2023/04/30 07:39:06;;;;;;;10.13;2.42;;;11.00;99.90;;;;;;5056919;28;20135;-26
2023/04/30 07:41:32;;;;;;;9.55;2.22;;;11.00;62.60;;;;;;5074471;28;20548;-26
2023/04/30 07:43:58;;;;;;;11.00;2.80;;;11.00;99.90;;;;;;5074195;28;20041;-26
2023/04/30 07:46:24;;;;;;;9.45;2.67;;;11.00;38.60;;;;;;5073145;28;20052;-25
2023/04/30 07:48:50;;;;;;;10.68;1.85;;;11.20;32.40;;;;;;5073233;28;20045;-26
2023/04/30 07:51:16;;;;;;;6.28;1.88;;;11.30;1.00;;;;;;5074650;28;20048;-26
2023/04/30 07:53:42;;;;;;;9.57;1.90;;;11.40;1.00;;;;;;5056261;28;20040;-26
2023/04/30 07:56:08;;;;;;;9.05;2.90;;;11.50;99.90;;;;;;5074333;28;20045;-26
2023/04/30 07:58:34;;;;;;;9.45;2.13;;;11.70;1.00;;;;;;5073544;28;20089;-24
2023/04/30 08:00:59;;;;;;;8.45;2.22;;;12.00;99.90;;;;;;5073789;28;20462;-24
2023/04/30 08:03:25;;;;;;;9.85;1.90;;;12.10;99.90;;;;;;5073916;28;20059;-24
2023/04/30 08:05:51;;;;;;;9.10;2.10;;;12.20;1.00;;;;;;5072641;28;20509;-24
2023/04/30 08:08:17;;;;;;;13.45;2.65;;;12.30;99.90;;;;;;5073835;28;20044;-25
2023/04/30 08:10:43;;;;;;;12.13;2.40;;;12.50;1.00;;;;;;5073093;28;20052;-24
2023/04/30 08:13:09;;;;;;;11.50;2.08;;;12.80;1.00;;;;;;5073739;28;20047;-24
2023/04/30 08:15:36;;;;;;;11.45;2.13;;;13.00;99.90;;;;;;5074443;28;20056;-24
2023/04/30 08:18:04;;;;;;;9.75;2.17;;;13.20;99.90;;;;;;5073976;28;20478;-25
2023/04/30 08:20:30;;;;;;;17.92;3.08;;;13.40;99.90;;;;;;5073785;28;20517;-24
2023/04/30 08:22:56;;;;;;;15.43;3.55;;;13.40;1.00;;;;;;5073675;28;20090;-24
2023/04/30 08:25:22;;;;;;;9.15;2.10;;;13.50;1.00;;;;;;5073755;28;20044;-24
2023/04/30 08:27:48;;;;;;;9.38;2.42;;;13.50;1.00;;;;;;5072905;28;20125;-24
2023/04/30 08:30:13;;;;;;;6.75;2.22;;;13.40;1.00;;;;;;5073691;28;20041;-24
2023/04/30 08:32:39;;;;;;;7.60;1.70;;;13.50;99.90;;;;;;5073532;28;20091;-24
2023/04/30 08:35:06;;;;;;;6.97;1.83;;;13.70;99.90;;;;;;5073836;28;20551;-24
2023/04/30 08:37:31;;;;;;;7.15;2.30;;;14.10;99.90;;;;;;5056770;28;20052;-24
2023/04/30 08:39:58;;;;;;;13.40;2.28;;;13.80;99.90;;;;;;5073046;28;20053;-24
2023/04/30 08:42:35;;;;;;;11.43;3.10;;;14.00;1.00;;;;;;5073540;28;20041;-24
2023/04/30 08:45:02;;;;;;;12.35;2.78;;;14.20;1.00;;;;;;5072529;28;20044;-24
2023/04/30 08:47:29;;;;;;;10.57;2.40;;;14.20;1.00;;;;;;5072174;28;20048;-24
2023/04/30 08:49:55;;;;;;;11.00;2.60;;;13.90;1.00;;;;;;5073399;28;20049;-24
2023/04/30 08:52:21;;;;;;;7.32;2.15;;;14.00;1.00;;;;;;5073343;28;20040;-24
2023/04/30 08:54:47;;;;;;;8.93;2.55;;;14.20;1.00;;;;;;5073343;28;20053;-24
2023/04/30 08:57:13;;;;;;;11.00;3.15;;;14.30;99.90;;;;;;5073366;28;20048;-24
2023/04/30 08:59:39;;;;;;;13.00;3.42;;;15.00;99.90;;;;;;5074141;28;20402;-24
2023/04/30 09:02:05;;;;;;;11.32;2.45;;;15.10;99.90;;;;;;5073319;28;20083;-25
2023/04/30 09:04:31;;;;;;;11.40;2.47;;;15.30;99.90;;;;;;5072313;28;20051;-25
2023/04/30 09:06:58;;;;;;;11.88;2.72;;;15.40;99.90;;;;;;5072052;28;20049;-25
2023/04/30 09:09:37;;;;;;;12.77;3.17;;;15.40;82.20;;;;;;5072966;28;20371;-25
2023/04/30 09:12:21;;;;;;;10.80;2.72;;;15.50;1.00;;;;;;5073087;28;20053;-25
2023/04/30 09:15:07;;;;;;;7.82;2.13;;;15.80;1.00;;;;;;5073343;28;20056;-25
2023/04/30 09:17:34;;;;;;;10.00;2.40;;;16.00;99.90;;;;;;5073638;28;20052;-25
2023/04/30 09:20:12;;;;;;;10.20;2.67;;;15.90;99.90;;;;;;5073138;28;20045;-25
2023/04/30 09:22:40;;;;;;;8.90;1.85;;;15.90;99.90;;;;;;5073671;28;20453;-25
2023/04/30 09:25:07;;;;;;;13.32;3.22;;;15.60;99.90;;;;;;5071538;28;20048;-25
2023/04/30 09:27:33;;;;;;;8.85;2.75;;;15.60;99.90;;;;;;5073066;28;20048;-25
2023/04/30 09:30:00;;;;;;;10.15;2.38;;;15.70;99.90;;;;;;5072978;28;20136;-25
2023/04/30 09:32:25;;;;;;;14.48;2.40;;;15.70;99.90;;;;;;5038693;28;20517;-25
2023/04/30 09:34:51;;;;;;;9.90;2.28;;;15.70;99.90;;;;;;5072964;28;20131;-25
2023/04/30 09:37:17;;;;;;;11.07;2.63;;;15.80;99.90;;;;;;5073441;28;20128;-25
2023/04/30 09:39:51;;;;;;;8.68;2.42;;;15.80;99.90;;;;;;5076505;28;20115;-25
2023/04/30 09:42:18;;;;;;;9.73;3.05;;;15.80;99.90;;;;;;5077099;28;20055;-25
2023/04/30 09:44:44;;;;;;;6.63;1.73;;;15.80;99.90;;;;;;5076695;28;20529;-25
2023/04/30 09:47:15;;;;;;;5.72;1.83;;;16.10;99.90;;;;;;5077327;28;20076;-25
2023/04/30 09:49:42;;;;;;;9.25;2.10;;;16.20;99.90;;;;;;5077168;28;20127;-25
2023/04/30 09:52:08;;;;;;;12.77;3.13;;;15.90;99.90;;;;;;5076464;28;20110;-25
2023/04/30 09:54:35;;;;;;;8.23;2.10;;;16.20;99.90;;;;;;5076419;28;20045;-25
2023/04/30 09:57:02;;;;;;;10.30;2.10;;;16.10;99.90;;;;;;5075240;28;20048;-25
2023/04/30 09:59:34;;;;;;;9.10;2.10;;;16.60;91.40;;;;;;5076417;28;20045;-25
2023/04/30 10:02:04;;;;;;;10.85;2.17;;;16.90;88.30;;;;;;5076992;28;20044;-25
2023/04/30 10:04:36;;;;;;;10.57;2.50;;;17.00;1.00;;;;;;5076351;28;20040;-25
2023/04/30 10:07:09;;;;;;;7.07;1.98;;;16.30;1.00;;;;;;5076261;28;20048;-25
2023/04/30 10:09:55;;;;;;;;;;;16.20;1.00;;;;;;5076853;28;20056;-26
2023/04/30 10:12:30;;;;;;;8.43;2.03;;;16.60;1.00;;;;;;5076134;28;19924;-25
2023/04/30 10:15:10;;;;;;;10.38;2.20;;;17.30;1.00;;;;;;5076043;28;20052;-25
2023/04/30 10:17:42;;;;;;;8.38;1.95;;;17.70;1.00;;;;;;5076074;28;20052;-25
2023/04/30 10:20:09;;;;;;;7.53;1.83;;;18.60;1.00;;;;;;5075002;28;20048;-25
2023/04/30 10:22:36;;;;;;;8.68;2.40;;;18.80;1.00;;;;;;5074950;28;20063;-25
2023/04/30 10:25:02;;;;;;;5.68;2.10;;;19.30;1.00;;;;;;5075799;28;20045;-26
2023/04/30 10:27:32;;;;;;;6.60;2.22;;;19.80;1.00;;;;;;5058034;28;20463;-27
2023/04/30 10:29:59;;;;;;;7.70;2.08;;;20.10;1.00;;;;;;5075854;28;20058;-25
2023/04/30 10:32:45;;;;;;;9.15;1.80;;;20.40;1.00;;;;;;5074742;28;20055;-26
2023/04/30 10:35:21;;;;;;;8.75;1.95;;;20.70;1.00;;;;;;5082069;28;20055;-25
2023/04/30 10:37:56;;;;;;;8.93;2.25;;;20.50;99.90;;;;;;5080215;28;20040;-26
2023/04/30 10:40:25;;;;;;;5.82;2.00;;;19.90;99.90;;;;;;5083567;28;20080;-26
2023/04/30 10:42:56;;;;;;;3.45;2.00;;;20.40;99.90;;;;;;5093905;28;20048;-26
2023/04/30 10:45:42;;;;;;;6.82;2.00;;;20.40;99.90;;;;;;5078878;28;20048;-26
2023/04/30 10:48:09;;;;;;;9.40;2.25;;;20.10;99.90;;;;;;5066599;28;20047;-26
2023/04/30 10:50:47;;;;;;;8.20;2.60;;;19.80;99.90;;;;;;5084348;28;20137;-26
2023/04/30 10:53:16;;;;;;;4.60;1.77;;;20.20;99.90;;;;;;5095828;28;20067;-26
2023/04/30 10:56:05;;;;;;;5.25;1.58;;;20.40;99.90;;;;;;5095536;28;20044;-26
2023/04/30 10:58:35;;;;;;;5.60;2.17;;;20.80;99.90;;;;;;5094232;28;20461;-26
2023/04/30 11:01:14;;;;;;;8.75;2.25;;;20.90;99.90;;;;;;5094836;28;20048;-27
2023/04/30 11:03:41;;;;;;;7.20;2.08;;;20.80;99.90;;;;;;5089530;28;20087;-27
2023/04/30 11:06:14;;;;;;;8.70;2.47;;;20.80;99.90;;;;;;5075054;28;20052;-26
2023/04/30 11:08:45;;;;;;;8.73;2.30;;;21.20;99.90;;;;;;5075044;28;20048;-26
2023/04/30 11:11:16;;;;;;;11.15;2.53;;;21.10;99.90;;;;;;5074849;28;20053;-26
2023/04/30 11:13:45;;;;;;;5.47;2.00;;;21.40;99.90;;;;;;5074407;28;20127;-25
2023/04/30 11:16:11;;;;;;;7.00;2.55;;;21.50;99.90;;;;;;5085984;28;20047;-26
2023/04/30 11:18:46;;;;;;;9.75;2.60;;;21.40;99.90;;;;;;5095013;28;20073;-26
2023/04/30 11:21:12;;;;;;;6.95;2.58;;;21.50;99.90;;;;;;5077919;28;20051;-27
2023/04/30 11:23:42;;;;;;;5.65;2.15;;;21.20;99.90;;;;;;5094858;28;20048;-26
2023/04/30 11:26:09;;;;;;;7.25;1.77;;;21.40;99.90;;;;;;5094865;28;20146;-26
2023/04/30 11:28:37;;;;;;;6.88;2.00;;;21.70;99.90;;;;;;5078368;28;20215;-26
2023/04/30 11:31:03;;;;;;;9.30;2.55;;;21.80;99.90;;;;;;5075156;28;20052;-26
2023/04/30 11:33:30;;;;;;;6.25;1.90;;;21.70;99.90;;;;;;5075009;28;20071;-26
2023/04/30 11:35:58;;;;;;;4.88;2.47;;;21.80;99.90;;;;;;5075034;28;20044;-27
2023/04/30 11:38:33;;;;;;;5.30;2.25;;;22.20;99.90;;;;;;5074675;28;20048;-26
2023/04/30 11:41:00;;;;;;;7.15;3.35;;;22.60;99.90;;;;;;5074403;28;20094;-26
2023/04/30 11:43:30;;;;;;;7.40;2.20;;;22.80;99.90;;;;;;5074357;28;20082;-27
2023/04/30 11:46:00;;;;;;;4.15;1.73;;;22.70;99.90;;;;;;5081934;28;20104;-26
2023/04/30 11:48:31;;;;;;;6.47;1.95;;;22.60;99.90;;;;;;5094715;28;20051;-26
2023/04/30 11:50:56;;;;;;;4.13;1.55;;;22.40;99.90;;;;;;5076758;28;20048;-28
2023/04/30 11:53:29;;;;;;;4.30;1.27;;;22.60;99.90;;;;;;5074114;28;20178;-27
2023/04/30 11:55:55;;;;;;;8.18;3.05;;;22.50;99.90;;;;;;5074108;28;20056;-27
2023/04/30 11:58:22;;;;;;;2.85;1.30;;;22.90;99.90;;;;;;5074147;28;20394;-27
2023/04/30 12:00:49;;;;;;;5.88;2.08;;;22.80;99.90;;;;;;5074259;28;20049;-27
2023/04/30 12:03:16;;;;;;;4.50;1.50;;;22.80;99.90;;;;;;5074353;28;20044;-27
2023/04/30 12:05:41;;;;;;;6.53;1.45;;;22.30;99.90;;;;;;5074043;28;20048;-27
2023/04/30 12:08:08;;;;;;;5.13;1.50;;;22.50;99.90;;;;;;5074836;28;20048;-27
2023/04/30 12:10:35;;;;;;;6.72;1.88;;;23.10;99.90;;;;;;5072977;28;20048;-27
2023/04/30 12:13:01;;;;;;;4.43;1.48;;;22.80;99.90;;;;;;5073213;28;20378;-27
2023/04/30 12:15:27;;;;;;;4.20;1.90;;;22.10;99.90;;;;;;5073700;28;20045;-27
2023/04/30 12:17:58;;;;;;;7.05;2.00;;;22.10;99.90;;;;;;5073931;28;20052;-27
2023/04/30 12:20:27;;;;;;;4.10;1.50;;;22.00;99.90;;;;;;5075001;28;20143;-27
2023/04/30 12:22:53;;;;;;;4.50;1.73;;;21.80;99.90;;;;;;5074272;28;20032;-25
2023/04/30 12:25:20;;;;;;;3.72;2.25;;;22.20;99.90;;;;;;5077924;28;20036;-25
2023/04/30 12:27:48;;;;;;;3.60;1.80;;;22.00;99.90;;;;;;5075487;28;20091;-27
2023/04/30 12:30:18;;;;;;;5.00;1.88;;;22.10;99.90;;;;;;5075093;28;20402;-28
2023/04/30 12:32:45;;;;;;;4.10;1.30;;;21.80;99.90;;;;;;5087574;28;20125;-27
2023/04/30 12:35:19;;;;;;;8.55;2.38;;;22.00;99.90;;;;;;5073710;28;20053;-28
2023/04/30 12:37:49;;;;;;;5.03;1.80;;;22.20;99.90;;;;;;5073653;28;20135;-27
2023/04/30 12:40:16;;;;;;;8.75;2.60;;;22.50;99.90;;;;;;5077254;28;20048;-27
2023/04/30 12:42:42;;;;;;;7.57;2.15;;;22.60;99.90;;;;;;5094348;28;20055;-27
2023/04/30 12:45:10;;;;;;;6.85;2.58;;;22.70;99.90;;;;;;5085618;28;20170;-27
2023/04/30 12:47:39;;;;;;;4.70;2.00;;;22.80;99.90;;;;;;5072353;28;20055;-27
2023/04/30 12:50:11;;;;;;;5.80;2.08;;;22.60;99.90;;;;;;5072424;28;20051;-28
2023/04/30 12:52:41;;;;;;;7.72;1.83;;;22.70;99.90;;;;;;5073119;28;20048;-27